sensor_id;sensor_type;location;lat;lon;timestamp;P1;durP1;ratioP1;P2;durP2;ratioP2
68438;SDS011;55421;51.600;5.718;2023-03-12T00:02:07;7.10;;;3.60;;
68438;SDS011;55421;51.600;5.718;2023-03-12T00:04:33;7.40;;;3.80;;
68438;SDS011;55421;51.600;5.718;2023-03-12T00:07:02;11.30;;;3.70;;
68438;SDS011;55421;51.600;5.718;2023-03-12T00:09:34;8.60;;;3.90;;
68438;SDS011;55421;51.600;5.718;2023-03-12T00:12:03;7.90;;;3.40;;
68438;SDS011;55421;51.600;5.718;2023-03-12T00:14:31;7.70;;;3.70;;
68438;SDS011;55421;51.600;5.718;2023-03-12T00:16:57;12.20;;;3.70;;
68438;SDS011;55421;51.600;5.718;2023-03-12T00:19:24;9.60;;;3.70;;
68438;SDS011;55421;51.600;5.718;2023-03-12T00:21:51;8.00;;;3.60;;
68438;SDS011;55421;51.600;5.718;2023-03-12T00:24:17;7.20;;;3.50;;
68438;SDS011;55421;51.600;5.718;2023-03-12T00:26:44;8.70;;;3.60;;
68438;SDS011;55421;51.600;5.718;2023-03-12T00:29:10;5.90;;;3.40;;
68438;SDS011;55421;51.600;5.718;2023-03-12T00:31:36;7.70;;;3.90;;
68438;SDS011;55421;51.600;5.718;2023-03-12T00:34:03;10.60;;;4.20;;
68438;SDS011;55421;51.600;5.718;2023-03-12T00:36:30;8.40;;;4.00;;
68438;SDS011;55421;51.600;5.718;2023-03-12T00:38:59;10.30;;;4.40;;
68438;SDS011;55421;51.600;5.718;2023-03-12T00:41:27;9.70;;;4.10;;
68438;SDS011;55421;51.600;5.718;2023-03-12T00:43:55;6.70;;;3.40;;
68438;SDS011;55421;51.600;5.718;2023-03-12T00:46:22;6.60;;;3.80;;
68438;SDS011;55421;51.600;5.718;2023-03-12T00:48:49;9.70;;;3.80;;
68438;SDS011;55421;51.600;5.718;2023-03-12T00:51:16;10.60;;;4.00;;
68438;SDS011;55421;51.600;5.718;2023-03-12T00:53:42;9.60;;;4.50;;
68438;SDS011;55421;51.600;5.718;2023-03-12T00:56:09;7.70;;;4.10;;
68438;SDS011;55421;51.600;5.718;2023-03-12T00:58:35;7.70;;;3.90;;
68438;SDS011;55421;51.600;5.718;2023-03-12T01:01:02;4.30;;;3.10;;
68438;SDS011;55421;51.600;5.718;2023-03-12T01:03:29;6.60;;;3.60;;
68438;SDS011;55421;51.600;5.718;2023-03-12T01:05:55;5.50;;;3.00;;
68438;SDS011;55421;51.600;5.718;2023-03-12T01:08:22;6.20;;;3.40;;
68438;SDS011;55421;51.600;5.718;2023-03-12T01:10:49;6.50;;;3.20;;
68438;SDS011;55421;51.600;5.718;2023-03-12T01:13:16;4.30;;;3.30;;
68438;SDS011;55421;51.600;5.718;2023-03-12T01:15:43;9.00;;;3.80;;
68438;SDS011;55421;51.600;5.718;2023-03-12T01:18:09;7.90;;;3.30;;
68438;SDS011;55421;51.600;5.718;2023-03-12T01:20:36;7.60;;;3.50;;
68438;SDS011;55421;51.600;5.718;2023-03-12T01:23:02;7.00;;;3.30;;
68438;SDS011;55421;51.600;5.718;2023-03-12T01:25:29;4.60;;;3.30;;
68438;SDS011;55421;51.600;5.718;2023-03-12T01:27:55;10.10;;;4.10;;
68438;SDS011;55421;51.600;5.718;2023-03-12T01:30:22;10.10;;;3.30;;
68438;SDS011;55421;51.600;5.718;2023-03-12T01:32:50;6.50;;;3.00;;
68438;SDS011;55421;51.600;5.718;2023-03-12T01:35:17;5.80;;;2.80;;
68438;SDS011;55421;51.600;5.718;2023-03-12T01:37:44;11.60;;;4.50;;
68438;SDS011;55421;51.600;5.718;2023-03-12T01:40:21;6.90;;;4.00;;
68438;SDS011;55421;51.600;5.718;2023-03-12T01:42:56;6.70;;;4.00;;
68438;SDS011;55421;51.600;5.718;2023-03-12T01:48:32;10.60;;;4.10;;
68438;SDS011;55421;51.600;5.718;2023-03-12T01:51:04;6.70;;;3.50;;
68438;SDS011;55421;51.600;5.718;2023-03-12T01:53:33;6.20;;;3.30;;
68438;SDS011;55421;51.600;5.718;2023-03-12T01:56:00;4.60;;;3.00;;
68438;SDS011;55421;51.600;5.718;2023-03-12T01:58:29;9.60;;;3.60;;
68438;SDS011;55421;51.600;5.718;2023-03-12T02:00:59;7.50;;;3.60;;
68438;SDS011;55421;51.600;5.718;2023-03-12T02:03:26;9.50;;;3.50;;
68438;SDS011;55421;51.600;5.718;2023-03-12T02:05:58;7.80;;;4.00;;
68438;SDS011;55421;51.600;5.718;2023-03-12T02:08:29;9.10;;;3.00;;
68438;SDS011;55421;51.600;5.718;2023-03-12T02:10:55;5.50;;;3.30;;
68438;SDS011;55421;51.600;5.718;2023-03-12T02:13:22;12.70;;;4.40;;
68438;SDS011;55421;51.600;5.718;2023-03-12T02:15:48;9.70;;;3.80;;
68438;SDS011;55421;51.600;5.718;2023-03-12T02:18:17;6.30;;;3.30;;
68438;SDS011;55421;51.600;5.718;2023-03-12T02:21:00;5.50;;;3.60;;
68438;SDS011;55421;51.600;5.718;2023-03-12T02:26:09;6.60;;;4.00;;
68438;SDS011;55421;51.600;5.718;2023-03-12T02:28:38;7.10;;;3.30;;
68438;SDS011;55421;51.600;5.718;2023-03-12T02:31:13;6.20;;;3.70;;
68438;SDS011;55421;51.600;5.718;2023-03-12T02:33:42;5.50;;;3.50;;
68438;SDS011;55421;51.600;5.718;2023-03-12T02:36:08;7.60;;;3.30;;
68438;SDS011;55421;51.600;5.718;2023-03-12T02:38:42;7.60;;;3.30;;
68438;SDS011;55421;51.600;5.718;2023-03-12T02:41:28;4.40;;;3.20;;
68438;SDS011;55421;51.600;5.718;2023-03-12T02:46:35;7.50;;;2.90;;
68438;SDS011;55421;51.600;5.718;2023-03-12T02:49:08;6.80;;;3.00;;
68438;SDS011;55421;51.600;5.718;2023-03-12T02:51:38;8.30;;;3.50;;
68438;SDS011;55421;51.600;5.718;2023-03-12T02:54:06;13.00;;;3.60;;
68438;SDS011;55421;51.600;5.718;2023-03-12T02:56:34;7.10;;;3.30;;
68438;SDS011;55421;51.600;5.718;2023-03-12T02:59:02;7.50;;;3.40;;
68438;SDS011;55421;51.600;5.718;2023-03-12T03:01:30;10.00;;;3.90;;
68438;SDS011;55421;51.600;5.718;2023-03-12T03:04:03;7.00;;;3.60;;
68438;SDS011;55421;51.600;5.718;2023-03-12T03:06:34;6.30;;;3.80;;
68438;SDS011;55421;51.600;5.718;2023-03-12T03:09:02;9.30;;;3.70;;
68438;SDS011;55421;51.600;5.718;2023-03-12T03:11:29;5.60;;;3.10;;
68438;SDS011;55421;51.600;5.718;2023-03-12T03:13:56;7.20;;;3.70;;
68438;SDS011;55421;51.600;5.718;2023-03-12T03:16:23;6.80;;;3.50;;
68438;SDS011;55421;51.600;5.718;2023-03-12T03:18:50;7.80;;;4.30;;
68438;SDS011;55421;51.600;5.718;2023-03-12T03:21:17;6.60;;;4.20;;
68438;SDS011;55421;51.600;5.718;2023-03-12T03:23:48;9.60;;;5.00;;
68438;SDS011;55421;51.600;5.718;2023-03-12T03:26:17;8.60;;;4.10;;
68438;SDS011;55421;51.600;5.718;2023-03-12T03:28:46;15.60;;;4.70;;
68438;SDS011;55421;51.600;5.718;2023-03-12T03:31:13;12.80;;;4.50;;
68438;SDS011;55421;51.600;5.718;2023-03-12T03:33:41;8.40;;;4.40;;
68438;SDS011;55421;51.600;5.718;2023-03-12T03:36:09;5.60;;;3.70;;
68438;SDS011;55421;51.600;5.718;2023-03-12T03:38:36;7.00;;;4.50;;
68438;SDS011;55421;51.600;5.718;2023-03-12T03:41:03;8.80;;;4.60;;
68438;SDS011;55421;51.600;5.718;2023-03-12T03:43:30;6.70;;;3.70;;
68438;SDS011;55421;51.600;5.718;2023-03-12T03:45:58;10.90;;;4.30;;
68438;SDS011;55421;51.600;5.718;2023-03-12T03:48:27;8.90;;;4.20;;
68438;SDS011;55421;51.600;5.718;2023-03-12T03:50:54;7.40;;;4.00;;
68438;SDS011;55421;51.600;5.718;2023-03-12T03:53:24;10.20;;;5.10;;
68438;SDS011;55421;51.600;5.718;2023-03-12T03:55:51;12.10;;;4.60;;
68438;SDS011;55421;51.600;5.718;2023-03-12T03:58:17;11.40;;;5.40;;
68438;SDS011;55421;51.600;5.718;2023-03-12T04:00:45;7.40;;;4.50;;
68438;SDS011;55421;51.600;5.718;2023-03-12T04:03:12;8.90;;;4.80;;
68438;SDS011;55421;51.600;5.718;2023-03-12T04:05:39;9.90;;;4.90;;
68438;SDS011;55421;51.600;5.718;2023-03-12T04:08:11;10.90;;;5.10;;
68438;SDS011;55421;51.600;5.718;2023-03-12T04:10:38;7.00;;;4.20;;
68438;SDS011;55421;51.600;5.718;2023-03-12T04:13:05;10.70;;;5.00;;
68438;SDS011;55421;51.600;5.718;2023-03-12T04:15:31;9.10;;;5.00;;
68438;SDS011;55421;51.600;5.718;2023-03-12T04:17:58;12.00;;;4.90;;
68438;SDS011;55421;51.600;5.718;2023-03-12T04:20:24;8.50;;;4.70;;
68438;SDS011;55421;51.600;5.718;2023-03-12T04:22:51;9.70;;;5.10;;
68438;SDS011;55421;51.600;5.718;2023-03-12T04:25:17;8.90;;;4.90;;
68438;SDS011;55421;51.600;5.718;2023-03-12T04:27:44;13.70;;;5.10;;
68438;SDS011;55421;51.600;5.718;2023-03-12T04:30:11;13.90;;;5.30;;
68438;SDS011;55421;51.600;5.718;2023-03-12T04:32:37;7.80;;;4.30;;
68438;SDS011;55421;51.600;5.718;2023-03-12T04:35:04;7.60;;;4.30;;
68438;SDS011;55421;51.600;5.718;2023-03-12T04:37:32;16.50;;;5.30;;
68438;SDS011;55421;51.600;5.718;2023-03-12T04:40:00;9.20;;;4.90;;
68438;SDS011;55421;51.600;5.718;2023-03-12T04:42:28;12.40;;;6.40;;
68438;SDS011;55421;51.600;5.718;2023-03-12T04:44:54;9.80;;;5.20;;
68438;SDS011;55421;51.600;5.718;2023-03-12T04:47:21;9.80;;;4.80;;
68438;SDS011;55421;51.600;5.718;2023-03-12T04:49:47;11.80;;;4.80;;
68438;SDS011;55421;51.600;5.718;2023-03-12T04:52:14;11.50;;;5.00;;
68438;SDS011;55421;51.600;5.718;2023-03-12T04:54:43;8.10;;;4.70;;
68438;SDS011;55421;51.600;5.718;2023-03-12T04:57:09;8.50;;;5.00;;
68438;SDS011;55421;51.600;5.718;2023-03-12T04:59:36;9.80;;;4.40;;
68438;SDS011;55421;51.600;5.718;2023-03-12T05:02:03;8.50;;;4.10;;
68438;SDS011;55421;51.600;5.718;2023-03-12T05:04:29;7.50;;;4.30;;
68438;SDS011;55421;51.600;5.718;2023-03-12T05:06:56;7.00;;;4.10;;
68438;SDS011;55421;51.600;5.718;2023-03-12T05:09:22;8.80;;;3.70;;
68438;SDS011;55421;51.600;5.718;2023-03-12T05:11:49;8.20;;;3.30;;
68438;SDS011;55421;51.600;5.718;2023-03-12T05:14:15;8.40;;;4.40;;
68438;SDS011;55421;51.600;5.718;2023-03-12T05:16:42;7.40;;;4.10;;
68438;SDS011;55421;51.600;5.718;2023-03-12T05:19:08;7.60;;;3.90;;
68438;SDS011;55421;51.600;5.718;2023-03-12T05:21:35;8.50;;;4.80;;
68438;SDS011;55421;51.600;5.718;2023-03-12T05:24:01;5.60;;;3.70;;
68438;SDS011;55421;51.600;5.718;2023-03-12T05:26:31;8.40;;;4.20;;
68438;SDS011;55421;51.600;5.718;2023-03-12T05:28:59;7.40;;;3.90;;
68438;SDS011;55421;51.600;5.718;2023-03-12T05:31:27;14.90;;;4.00;;
68438;SDS011;55421;51.600;5.718;2023-03-12T05:33:58;7.30;;;3.80;;
68438;SDS011;55421;51.600;5.718;2023-03-12T05:36:24;5.70;;;3.70;;
68438;SDS011;55421;51.600;5.718;2023-03-12T05:38:51;5.80;;;3.40;;
68438;SDS011;55421;51.600;5.718;2023-03-12T05:41:23;8.00;;;3.80;;
68438;SDS011;55421;51.600;5.718;2023-03-12T05:43:53;8.00;;;3.50;;
68438;SDS011;55421;51.600;5.718;2023-03-12T05:46:25;6.10;;;3.50;;
68438;SDS011;55421;51.600;5.718;2023-03-12T05:48:52;6.80;;;3.40;;
68438;SDS011;55421;51.600;5.718;2023-03-12T05:51:19;5.80;;;3.60;;
68438;SDS011;55421;51.600;5.718;2023-03-12T05:53:46;9.80;;;3.90;;
68438;SDS011;55421;51.600;5.718;2023-03-12T05:56:16;5.30;;;3.30;;
68438;SDS011;55421;51.600;5.718;2023-03-12T05:58:43;8.80;;;3.60;;
68438;SDS011;55421;51.600;5.718;2023-03-12T06:01:16;5.20;;;3.20;;
68438;SDS011;55421;51.600;5.718;2023-03-12T06:03:45;4.90;;;3.30;;
68438;SDS011;55421;51.600;5.718;2023-03-12T06:06:12;6.50;;;3.30;;
68438;SDS011;55421;51.600;5.718;2023-03-12T06:08:40;7.40;;;3.30;;
68438;SDS011;55421;51.600;5.718;2023-03-12T06:11:07;14.30;;;3.80;;
68438;SDS011;55421;51.600;5.718;2023-03-12T06:13:34;7.20;;;2.50;;
68438;SDS011;55421;51.600;5.718;2023-03-12T06:16:06;9.10;;;3.10;;
68438;SDS011;55421;51.600;5.718;2023-03-12T06:18:39;7.80;;;3.30;;
68438;SDS011;55421;51.600;5.718;2023-03-12T06:21:14;9.80;;;4.10;;
68438;SDS011;55421;51.600;5.718;2023-03-12T06:23:43;7.30;;;3.80;;
68438;SDS011;55421;51.600;5.718;2023-03-12T06:26:11;3.80;;;2.70;;
68438;SDS011;55421;51.600;5.718;2023-03-12T06:28:38;8.80;;;3.70;;
68438;SDS011;55421;51.600;5.718;2023-03-12T06:31:05;5.20;;;3.40;;
68438;SDS011;55421;51.600;5.718;2023-03-12T06:33:32;11.10;;;4.10;;
68438;SDS011;55421;51.600;5.718;2023-03-12T06:36:02;16.50;;;4.30;;
68438;SDS011;55421;51.600;5.718;2023-03-12T06:38:31;6.00;;;3.20;;
68438;SDS011;55421;51.600;5.718;2023-03-12T06:41:00;16.10;;;5.30;;
68438;SDS011;55421;51.600;5.718;2023-03-12T06:43:30;12.20;;;3.80;;
68438;SDS011;55421;51.600;5.718;2023-03-12T06:45:59;6.30;;;3.60;;
68438;SDS011;55421;51.600;5.718;2023-03-12T06:48:28;9.10;;;3.80;;
68438;SDS011;55421;51.600;5.718;2023-03-12T06:50:58;8.00;;;4.10;;
68438;SDS011;55421;51.600;5.718;2023-03-12T06:53:25;6.60;;;4.40;;
68438;SDS011;55421;51.600;5.718;2023-03-12T06:55:53;7.60;;;3.70;;
68438;SDS011;55421;51.600;5.718;2023-03-12T06:58:20;8.60;;;4.10;;
68438;SDS011;55421;51.600;5.718;2023-03-12T07:00:46;10.30;;;4.30;;
68438;SDS011;55421;51.600;5.718;2023-03-12T07:03:13;8.00;;;3.90;;
68438;SDS011;55421;51.600;5.718;2023-03-12T07:05:43;9.30;;;4.50;;
68438;SDS011;55421;51.600;5.718;2023-03-12T07:08:11;6.70;;;3.90;;
68438;SDS011;55421;51.600;5.718;2023-03-12T07:10:38;6.70;;;4.00;;
68438;SDS011;55421;51.600;5.718;2023-03-12T07:13:05;17.20;;;7.80;;
68438;SDS011;55421;51.600;5.718;2023-03-12T07:15:33;7.60;;;4.40;;
68438;SDS011;55421;51.600;5.718;2023-03-12T07:18:00;9.40;;;5.00;;
68438;SDS011;55421;51.600;5.718;2023-03-12T07:20:31;8.40;;;4.10;;
68438;SDS011;55421;51.600;5.718;2023-03-12T07:22:58;7.30;;;4.50;;
68438;SDS011;55421;51.600;5.718;2023-03-12T07:25:25;12.70;;;4.20;;
68438;SDS011;55421;51.600;5.718;2023-03-12T07:27:52;10.60;;;5.00;;
68438;SDS011;55421;51.600;5.718;2023-03-12T07:30:18;7.80;;;4.00;;
68438;SDS011;55421;51.600;5.718;2023-03-12T07:32:45;9.30;;;4.10;;
68438;SDS011;55421;51.600;5.718;2023-03-12T07:35:11;8.30;;;3.80;;
68438;SDS011;55421;51.600;5.718;2023-03-12T07:37:38;9.60;;;4.40;;
68438;SDS011;55421;51.600;5.718;2023-03-12T07:40:05;11.20;;;5.50;;
68438;SDS011;55421;51.600;5.718;2023-03-12T07:42:33;9.30;;;4.00;;
68438;SDS011;55421;51.600;5.718;2023-03-12T07:44:59;10.50;;;4.90;;
68438;SDS011;55421;51.600;5.718;2023-03-12T07:47:26;8.80;;;4.90;;
68438;SDS011;55421;51.600;5.718;2023-03-12T07:49:52;7.50;;;4.50;;
68438;SDS011;55421;51.600;5.718;2023-03-12T07:52:19;6.70;;;4.40;;
68438;SDS011;55421;51.600;5.718;2023-03-12T07:54:45;10.40;;;4.90;;
68438;SDS011;55421;51.600;5.718;2023-03-12T07:57:12;10.40;;;5.40;;
68438;SDS011;55421;51.600;5.718;2023-03-12T07:59:38;12.20;;;5.30;;
68438;SDS011;55421;51.600;5.718;2023-03-12T08:02:05;9.00;;;4.50;;
68438;SDS011;55421;51.600;5.718;2023-03-12T08:04:32;7.90;;;4.50;;
68438;SDS011;55421;51.600;5.718;2023-03-12T08:06:58;8.40;;;4.70;;
68438;SDS011;55421;51.600;5.718;2023-03-12T08:09:25;8.70;;;5.40;;
68438;SDS011;55421;51.600;5.718;2023-03-12T08:11:51;9.30;;;5.40;;
68438;SDS011;55421;51.600;5.718;2023-03-12T08:14:18;11.30;;;6.00;;
68438;SDS011;55421;51.600;5.718;2023-03-12T08:16:44;7.80;;;4.70;;
68438;SDS011;55421;51.600;5.718;2023-03-12T08:19:11;10.00;;;4.90;;
68438;SDS011;55421;51.600;5.718;2023-03-12T08:21:37;7.20;;;4.30;;
68438;SDS011;55421;51.600;5.718;2023-03-12T08:24:04;12.60;;;4.80;;
68438;SDS011;55421;51.600;5.718;2023-03-12T08:26:30;7.50;;;4.60;;
68438;SDS011;55421;51.600;5.718;2023-03-12T08:28:57;7.90;;;5.60;;
68438;SDS011;55421;51.600;5.718;2023-03-12T08:31:27;8.70;;;5.90;;
68438;SDS011;55421;51.600;5.718;2023-03-12T08:33:54;9.30;;;5.70;;
68438;SDS011;55421;51.600;5.718;2023-03-12T08:36:20;11.20;;;5.70;;
68438;SDS011;55421;51.600;5.718;2023-03-12T08:38:47;8.70;;;4.70;;
68438;SDS011;55421;51.600;5.718;2023-03-12T08:41:13;9.70;;;4.90;;
68438;SDS011;55421;51.600;5.718;2023-03-12T08:43:40;7.90;;;5.00;;
68438;SDS011;55421;51.600;5.718;2023-03-12T08:46:06;8.40;;;5.50;;
68438;SDS011;55421;51.600;5.718;2023-03-12T08:48:33;9.00;;;5.80;;
68438;SDS011;55421;51.600;5.718;2023-03-12T08:51:00;9.20;;;6.00;;
68438;SDS011;55421;51.600;5.718;2023-03-12T08:53:29;10.60;;;6.20;;
68438;SDS011;55421;51.600;5.718;2023-03-12T08:55:57;8.60;;;6.40;;
68438;SDS011;55421;51.600;5.718;2023-03-12T08:58:25;10.70;;;6.60;;
68438;SDS011;55421;51.600;5.718;2023-03-12T09:00:52;9.40;;;6.40;;
68438;SDS011;55421;51.600;5.718;2023-03-12T09:03:20;8.80;;;5.60;;
68438;SDS011;55421;51.600;5.718;2023-03-12T09:05:48;8.10;;;5.50;;
68438;SDS011;55421;51.600;5.718;2023-03-12T09:08:15;10.20;;;6.30;;
68438;SDS011;55421;51.600;5.718;2023-03-12T09:10:48;8.00;;;6.00;;
68438;SDS011;55421;51.600;5.718;2023-03-12T09:13:15;9.10;;;6.00;;
68438;SDS011;55421;51.600;5.718;2023-03-12T09:15:41;8.90;;;6.40;;
68438;SDS011;55421;51.600;5.718;2023-03-12T09:18:08;7.40;;;5.70;;
68438;SDS011;55421;51.600;5.718;2023-03-12T09:20:34;9.70;;;6.80;;
68438;SDS011;55421;51.600;5.718;2023-03-12T09:23:01;11.80;;;6.90;;
68438;SDS011;55421;51.600;5.718;2023-03-12T09:25:29;8.60;;;5.90;;
68438;SDS011;55421;51.600;5.718;2023-03-12T09:27:56;10.00;;;6.90;;
68438;SDS011;55421;51.600;5.718;2023-03-12T09:30:23;12.30;;;7.70;;
68438;SDS011;55421;51.600;5.718;2023-03-12T09:32:52;11.40;;;7.70;;
68438;SDS011;55421;51.600;5.718;2023-03-12T09:35:19;12.10;;;8.30;;
68438;SDS011;55421;51.600;5.718;2023-03-12T09:37:47;11.40;;;7.10;;
68438;SDS011;55421;51.600;5.718;2023-03-12T09:40:18;14.10;;;8.00;;
68438;SDS011;55421;51.600;5.718;2023-03-12T09:42:59;14.90;;;7.60;;
68438;SDS011;55421;51.600;5.718;2023-03-12T09:45:37;14.00;;;7.00;;
68438;SDS011;55421;51.600;5.718;2023-03-12T09:48:13;12.70;;;8.40;;
68438;SDS011;55421;51.600;5.718;2023-03-12T09:50:47;11.90;;;7.80;;
68438;SDS011;55421;51.600;5.718;2023-03-12T09:56:19;12.10;;;8.30;;
68438;SDS011;55421;51.600;5.718;2023-03-12T09:58:48;9.40;;;6.20;;
68438;SDS011;55421;51.600;5.718;2023-03-12T10:04:26;11.20;;;7.40;;
68438;SDS011;55421;51.600;5.718;2023-03-12T10:07:35;13.00;;;7.90;;
68438;SDS011;55421;51.600;5.718;2023-03-12T10:13:16;16.30;;;8.80;;
68438;SDS011;55421;51.600;5.718;2023-03-12T10:22:06;14.30;;;8.90;;
68438;SDS011;55421;51.600;5.718;2023-03-12T10:25:04;12.80;;;8.60;;
68438;SDS011;55421;51.600;5.718;2023-03-12T10:27:50;13.70;;;9.10;;
68438;SDS011;55421;51.600;5.718;2023-03-12T10:30:22;13.80;;;9.50;;
68438;SDS011;55421;51.600;5.718;2023-03-12T10:32:58;16.30;;;10.50;;
68438;SDS011;55421;51.600;5.718;2023-03-12T10:35:29;16.40;;;10.30;;
68438;SDS011;55421;51.600;5.718;2023-03-12T10:38:01;15.80;;;10.40;;
68438;SDS011;55421;51.600;5.718;2023-03-12T10:40:32;14.90;;;9.70;;
68438;SDS011;55421;51.600;5.718;2023-03-12T10:43:02;15.90;;;10.60;;
68438;SDS011;55421;51.600;5.718;2023-03-12T10:48:42;19.30;;;11.60;;
68438;SDS011;55421;51.600;5.718;2023-03-12T10:51:10;19.30;;;10.80;;
68438;SDS011;55421;51.600;5.718;2023-03-12T10:53:39;17.50;;;10.20;;
68438;SDS011;55421;51.600;5.718;2023-03-12T10:56:15;10.90;;;6.90;;
68438;SDS011;55421;51.600;5.718;2023-03-12T10:58:48;16.00;;;9.30;;
68438;SDS011;55421;51.600;5.718;2023-03-12T11:01:22;18.40;;;9.90;;
68438;SDS011;55421;51.600;5.718;2023-03-12T11:04:29;22.10;;;10.80;;
68438;SDS011;55421;51.600;5.718;2023-03-12T11:09:37;18.20;;;10.10;;
68438;SDS011;55421;51.600;5.718;2023-03-12T11:12:34;17.80;;;8.80;;
68438;SDS011;55421;51.600;5.718;2023-03-12T11:15:23;19.10;;;10.10;;
68438;SDS011;55421;51.600;5.718;2023-03-12T11:20:47;20.00;;;10.70;;
68438;SDS011;55421;51.600;5.718;2023-03-12T11:23:20;22.30;;;10.60;;
68438;SDS011;55421;51.600;5.718;2023-03-12T11:25:55;24.10;;;11.60;;
68438;SDS011;55421;51.600;5.718;2023-03-12T11:28:39;24.60;;;9.60;;
68438;SDS011;55421;51.600;5.718;2023-03-12T11:31:14;21.60;;;10.40;;
68438;SDS011;55421;51.600;5.718;2023-03-12T11:33:44;19.80;;;10.90;;
68438;SDS011;55421;51.600;5.718;2023-03-12T11:41:51;22.30;;;9.80;;
68438;SDS011;55421;51.600;5.718;2023-03-12T11:45:37;21.70;;;10.30;;
68438;SDS011;55421;51.600;5.718;2023-03-12T11:48:21;25.10;;;9.30;;
68438;SDS011;55421;51.600;5.718;2023-03-12T11:57:12;15.70;;;7.00;;
68438;SDS011;55421;51.600;5.718;2023-03-12T12:00:15;23.80;;;9.10;;
68438;SDS011;55421;51.600;5.718;2023-03-12T12:06:01;17.70;;;8.50;;
68438;SDS011;55421;51.600;5.718;2023-03-12T12:12:10;16.10;;;6.10;;
68438;SDS011;55421;51.600;5.718;2023-03-12T12:14:56;28.30;;;8.90;;
68438;SDS011;55421;51.600;5.718;2023-03-12T12:20:38;19.70;;;7.80;;
68438;SDS011;55421;51.600;5.718;2023-03-12T12:23:38;21.90;;;6.70;;
68438;SDS011;55421;51.600;5.718;2023-03-12T12:26:26;21.60;;;6.70;;
68438;SDS011;55421;51.600;5.718;2023-03-12T12:29:11;26.10;;;7.20;;
68438;SDS011;55421;51.600;5.718;2023-03-12T12:31:57;16.90;;;5.40;;
68438;SDS011;55421;51.600;5.718;2023-03-12T12:40:21;28.40;;;7.90;;
68438;SDS011;55421;51.600;5.718;2023-03-12T12:43:16;18.90;;;7.10;;
68438;SDS011;55421;51.600;5.718;2023-03-12T12:45:47;20.70;;;6.40;;
68438;SDS011;55421;51.600;5.718;2023-03-12T12:48:25;19.30;;;7.50;;
68438;SDS011;55421;51.600;5.718;2023-03-12T12:50:56;24.40;;;8.20;;
68438;SDS011;55421;51.600;5.718;2023-03-12T12:53:36;20.30;;;6.80;;
68438;SDS011;55421;51.600;5.718;2023-03-12T12:56:30;25.30;;;7.00;;
68438;SDS011;55421;51.600;5.718;2023-03-12T12:59:39;23.80;;;7.70;;
68438;SDS011;55421;51.600;5.718;2023-03-12T13:02:19;25.00;;;7.90;;
68438;SDS011;55421;51.600;5.718;2023-03-12T13:04:48;12.80;;;5.80;;
68438;SDS011;55421;51.600;5.718;2023-03-12T13:09:45;20.30;;;6.90;;
68438;SDS011;55421;51.600;5.718;2023-03-12T13:12:25;19.10;;;6.70;;
68438;SDS011;55421;51.600;5.718;2023-03-12T13:20:33;22.60;;;8.50;;
68438;SDS011;55421;51.600;5.718;2023-03-12T13:23:31;26.80;;;8.90;;
68438;SDS011;55421;51.600;5.718;2023-03-12T13:26:22;30.00;;;9.20;;
68438;SDS011;55421;51.600;5.718;2023-03-12T13:36:43;23.20;;;9.00;;
68438;SDS011;55421;51.600;5.718;2023-03-12T13:41:48;31.40;;;7.60;;
68438;SDS011;55421;51.600;5.718;2023-03-12T13:44:22;29.10;;;7.10;;
68438;SDS011;55421;51.600;5.718;2023-03-12T13:47:16;23.10;;;7.80;;
68438;SDS011;55421;51.600;5.718;2023-03-12T13:49:59;23.20;;;5.70;;
68438;SDS011;55421;51.600;5.718;2023-03-12T13:52:41;20.00;;;4.00;;
68438;SDS011;55421;51.600;5.718;2023-03-12T13:57:43;16.30;;;3.90;;
68438;SDS011;55421;51.600;5.718;2023-03-12T14:00:49;11.90;;;2.90;;
68438;SDS011;55421;51.600;5.718;2023-03-12T14:03:25;22.70;;;5.80;;
68438;SDS011;55421;51.600;5.718;2023-03-12T14:14:23;24.00;;;5.30;;
68438;SDS011;55421;51.600;5.718;2023-03-12T14:17:18;18.10;;;4.70;;
68438;SDS011;55421;51.600;5.718;2023-03-12T14:20:09;18.10;;;4.80;;
68438;SDS011;55421;51.600;5.718;2023-03-12T14:22:42;14.70;;;4.20;;
68438;SDS011;55421;51.600;5.718;2023-03-12T14:25:21;18.60;;;5.10;;
68438;SDS011;55421;51.600;5.718;2023-03-12T14:27:56;23.60;;;5.80;;
68438;SDS011;55421;51.600;5.718;2023-03-12T14:30:43;20.60;;;5.10;;
68438;SDS011;55421;51.600;5.718;2023-03-12T14:33:17;20.20;;;5.40;;
68438;SDS011;55421;51.600;5.718;2023-03-12T14:35:49;21.10;;;5.00;;
68438;SDS011;55421;51.600;5.718;2023-03-12T14:38:29;19.90;;;5.60;;
68438;SDS011;55421;51.600;5.718;2023-03-12T14:41:31;26.90;;;5.00;;
68438;SDS011;55421;51.600;5.718;2023-03-12T14:44:04;19.50;;;4.90;;
68438;SDS011;55421;51.600;5.718;2023-03-12T14:46:55;12.80;;;3.60;;
68438;SDS011;55421;51.600;5.718;2023-03-12T14:49:28;21.00;;;4.50;;
68438;SDS011;55421;51.600;5.718;2023-03-12T14:51:56;18.50;;;3.80;;
68438;SDS011;55421;51.600;5.718;2023-03-12T14:54:26;19.20;;;4.20;;
68438;SDS011;55421;51.600;5.718;2023-03-12T14:56:55;19.90;;;4.50;;
68438;SDS011;55421;51.600;5.718;2023-03-12T14:59:33;21.60;;;4.10;;
68438;SDS011;55421;51.600;5.718;2023-03-12T15:02:17;24.80;;;4.60;;
68438;SDS011;55421;51.600;5.718;2023-03-12T15:04:46;19.50;;;4.30;;
68438;SDS011;55421;51.600;5.718;2023-03-12T15:07:18;17.20;;;3.50;;
68438;SDS011;55421;51.600;5.718;2023-03-12T15:09:50;13.80;;;3.40;;
68438;SDS011;55421;51.600;5.718;2023-03-12T15:12:33;18.60;;;4.10;;
68438;SDS011;55421;51.600;5.718;2023-03-12T15:15:06;17.40;;;3.80;;
68438;SDS011;55421;51.600;5.718;2023-03-12T15:17:36;14.20;;;3.50;;
68438;SDS011;55421;51.600;5.718;2023-03-12T15:20:04;18.10;;;4.80;;
68438;SDS011;55421;51.600;5.718;2023-03-12T15:22:35;15.60;;;3.70;;
68438;SDS011;55421;51.600;5.718;2023-03-12T15:25:19;23.10;;;4.10;;
68438;SDS011;55421;51.600;5.718;2023-03-12T15:27:47;20.10;;;4.10;;
68438;SDS011;55421;51.600;5.718;2023-03-12T15:30:26;22.40;;;4.00;;
68438;SDS011;55421;51.600;5.718;2023-03-12T15:35:41;18.40;;;3.70;;
68438;SDS011;55421;51.600;5.718;2023-03-12T15:38:23;22.10;;;3.70;;
68438;SDS011;55421;51.600;5.718;2023-03-12T15:40:52;17.50;;;3.60;;
68438;SDS011;55421;51.600;5.718;2023-03-12T15:43:22;23.20;;;4.10;;
68438;SDS011;55421;51.600;5.718;2023-03-12T15:46:01;20.80;;;4.70;;
68438;SDS011;55421;51.600;5.718;2023-03-12T15:48:35;23.00;;;4.90;;
68438;SDS011;55421;51.600;5.718;2023-03-12T15:51:35;23.10;;;4.30;;
68438;SDS011;55421;51.600;5.718;2023-03-12T15:54:26;22.10;;;5.00;;
68438;SDS011;55421;51.600;5.718;2023-03-12T15:56:52;21.80;;;3.80;;
68438;SDS011;55421;51.600;5.718;2023-03-12T15:59:25;17.00;;;3.20;;
68438;SDS011;55421;51.600;5.718;2023-03-12T16:01:56;23.50;;;5.10;;
68438;SDS011;55421;51.600;5.718;2023-03-12T16:04:22;19.60;;;5.20;;
68438;SDS011;55421;51.600;5.718;2023-03-12T16:06:50;20.10;;;3.40;;
68438;SDS011;55421;51.600;5.718;2023-03-12T16:09:25;16.00;;;3.30;;
68438;SDS011;55421;51.600;5.718;2023-03-12T16:11:54;28.50;;;5.30;;
68438;SDS011;55421;51.600;5.718;2023-03-12T16:14:27;21.60;;;4.10;;
68438;SDS011;55421;51.600;5.718;2023-03-12T16:16:59;23.90;;;4.20;;
68438;SDS011;55421;51.600;5.718;2023-03-12T16:19:28;21.60;;;4.60;;
68438;SDS011;55421;51.600;5.718;2023-03-12T16:21:55;20.00;;;4.40;;
68438;SDS011;55421;51.600;5.718;2023-03-12T16:24:21;19.90;;;3.70;;
68438;SDS011;55421;51.600;5.718;2023-03-12T16:26:54;19.90;;;4.40;;
68438;SDS011;55421;51.600;5.718;2023-03-12T16:29:44;24.60;;;4.70;;
68438;SDS011;55421;51.600;5.718;2023-03-12T16:32:14;17.30;;;3.90;;
68438;SDS011;55421;51.600;5.718;2023-03-12T16:34:42;21.70;;;3.90;;
68438;SDS011;55421;51.600;5.718;2023-03-12T16:37:11;19.10;;;4.30;;
68438;SDS011;55421;51.600;5.718;2023-03-12T16:39:38;18.10;;;3.90;;